AFL1552 UUEE-UNNT
Flight info
| Callsign | AFL1552 |
|---|---|
| Flight time | 3h 41m |
| Altitude | 35000 |
| Route | OLMUN3H OLMUN T629 IPSIL T830 LAMGU N604 OGSIN P983 GISMA B926 SZ R814 LUGET B944 GOLIM GOLIM1K |
| Aircraft | B77W/H-SDE1E2E3FGHIJ2J3J4J5M1RWXY/LB1D1 |
Departure
| Time | 2026-05-05 10:04 |
|---|---|
| Airport | Sheremetyevo International Airport (UUEE) |
Arrival
| Time | 2026-05-05 13:46 |
|---|---|
| Airport | Novosibirsk Tolmachevo Airport (UNNT) |
| Time | Latitude | Longitude | Altitude | Speed | Heading |
|---|---|---|---|---|---|
| 2026-05-05 09:20 | 55.98018 | 37.41839 | 644 ft | 0 kts | 255° |
| 2026-05-05 09:51 | 55.98019 | 37.41841 | 644 ft | 1 kts | 255° |
| 2026-05-05 09:51 | 55.98023 | 37.41868 | 644 ft | 3 kts | 252° |
| 2026-05-05 09:51 | 55.98029 | 37.41901 | 644 ft | 3 kts | 244° |
| 2026-05-05 09:52 | 55.98039 | 37.41931 | 644 ft | 3 kts | 230° |
| 2026-05-05 09:52 | 55.98050 | 37.41952 | 644 ft | 3 kts | 206° |
| 2026-05-05 09:52 | 55.98061 | 37.41960 | 644 ft | 2 kts | 173° |
| 2026-05-05 09:52 | 55.98066 | 37.41959 | 644 ft | 0 kts | 165° |
| 2026-05-05 09:57 | 55.98054 | 37.41964 | 644 ft | 8 kts | 165° |
| 2026-05-05 09:58 | 55.97994 | 37.41993 | 644 ft | 9 kts | 165° |
| 2026-05-05 09:58 | 55.97933 | 37.42022 | 649 ft | 9 kts | 165° |
| 2026-05-05 09:58 | 55.97872 | 37.42052 | 644 ft | 9 kts | 165° |
| 2026-05-05 09:58 | 55.97810 | 37.42081 | 644 ft | 9 kts | 165° |
| 2026-05-05 09:59 | 55.97733 | 37.42118 | 644 ft | 13 kts | 163° |
| 2026-05-05 09:59 | 55.97698 | 37.42254 | 644 ft | 14 kts | 82° |
| 2026-05-05 09:59 | 55.97720 | 37.42420 | 644 ft | 14 kts | 75° |
| 2026-05-05 09:59 | 55.97744 | 37.42583 | 644 ft | 14 kts | 75° |
| 2026-05-05 10:00 | 55.97769 | 37.42748 | 644 ft | 14 kts | 75° |
| 2026-05-05 10:00 | 55.97794 | 37.42913 | 644 ft | 14 kts | 75° |
| 2026-05-05 10:00 | 55.97818 | 37.43075 | 644 ft | 14 kts | 75° |
| 2026-05-05 10:00 | 55.97843 | 37.43239 | 644 ft | 14 kts | 75° |
| 2026-05-05 10:01 | 55.97867 | 37.43403 | 644 ft | 14 kts | 75° |
| 2026-05-05 10:01 | 55.97892 | 37.43568 | 644 ft | 14 kts | 75° |
| 2026-05-05 10:01 | 55.97916 | 37.43732 | 644 ft | 14 kts | 75° |
| 2026-05-05 10:01 | 55.97941 | 37.43895 | 644 ft | 14 kts | 75° |
| 2026-05-05 10:02 | 55.97907 | 37.44032 | 644 ft | 14 kts | 153° |
| 2026-05-05 10:02 | 55.97814 | 37.44062 | 647 ft | 14 kts | 201° |
| 2026-05-05 10:02 | 55.97766 | 37.43913 | 645 ft | 14 kts | 253° |
| 2026-05-05 10:02 | 55.97751 | 37.43816 | 646 ft | 0 kts | 255° |
| 2026-05-05 10:03 | 55.97750 | 37.43807 | 646 ft | 1 kts | 255° |
| 2026-05-05 10:03 | 55.97747 | 37.43791 | 646 ft | 2 kts | 255° |
| 2026-05-05 10:03 | 55.97735 | 37.43714 | 645 ft | 20 kts | 255° |
| 2026-05-05 10:03 | 55.97647 | 37.43127 | 650 ft | 87 kts | 255° |
| 2026-05-05 10:04 | 55.97423 | 37.41630 | 642 ft | 158 kts | 255° |
| 2026-05-05 10:04 | 55.97092 | 37.39488 | 769 ft | 197 kts | 254° |
| 2026-05-05 10:04 | 55.96733 | 37.37189 | 1739 ft | 182 kts | 254° |
| 2026-05-05 10:04 | 55.96393 | 37.35009 | 2684 ft | 184 kts | 254° |
| 2026-05-05 10:05 | 55.96030 | 37.32661 | 3051 ft | 213 kts | 253° |
| 2026-05-05 10:05 | 55.95602 | 37.29935 | 3324 ft | 247 kts | 253° |
| 2026-05-05 10:05 | 55.95107 | 37.26845 | 3896 ft | 264 kts | 254° |
| 2026-05-05 10:05 | 55.94604 | 37.23670 | 4701 ft | 270 kts | 254° |
| 2026-05-05 10:06 | 55.94090 | 37.20387 | 5613 ft | 273 kts | 254° |
| 2026-05-05 10:06 | 55.93583 | 37.17151 | 6465 ft | 277 kts | 254° |
| 2026-05-05 10:06 | 55.93061 | 37.13823 | 7332 ft | 280 kts | 254° |
| 2026-05-05 10:06 | 55.92529 | 37.10453 | 8173 ft | 283 kts | 254° |
| 2026-05-05 10:07 | 55.91991 | 37.07061 | 9029 ft | 286 kts | 254° |
| 2026-05-05 10:07 | 55.91626 | 37.03567 | 9716 ft | 288 kts | 272° |
| 2026-05-05 10:07 | 55.92108 | 37.00145 | 10017 ft | 293 kts | 299° |
| 2026-05-05 10:07 | 55.93475 | 36.97486 | 10012 ft | 292 kts | 324° |
| 2026-05-05 10:08 | 55.95158 | 36.95429 | 9999 ft | 292 kts | 326° |
| 2026-05-05 10:08 | 55.96835 | 36.93377 | 9994 ft | 289 kts | 326° |
| 2026-05-05 10:08 | 55.98617 | 36.91941 | 9998 ft | 285 kts | 351° |
| 2026-05-05 10:08 | 56.00586 | 36.92111 | 10132 ft | 287 kts | 17° |
| 2026-05-05 10:09 | 56.02399 | 36.93599 | 10877 ft | 291 kts | 32° |
| 2026-05-05 10:09 | 56.04108 | 36.95620 | 11750 ft | 293 kts | 34° |
| 2026-05-05 10:09 | 56.05800 | 36.97652 | 12695 ft | 294 kts | 33° |
| 2026-05-05 10:09 | 56.07523 | 36.99699 | 13496 ft | 299 kts | 33° |
| 2026-05-05 10:10 | 56.09270 | 37.01756 | 13875 ft | 302 kts | 33° |
| 2026-05-05 10:10 | 56.10997 | 37.03922 | 13840 ft | 302 kts | 44° |
| 2026-05-05 10:10 | 56.12188 | 37.06952 | 13896 ft | 308 kts | 69° |
| 2026-05-05 10:10 | 56.12779 | 37.10754 | 14336 ft | 322 kts | 76° |
| 2026-05-05 10:11 | 56.13314 | 37.14683 | 14825 ft | 329 kts | 76° |
| 2026-05-05 10:11 | 56.13874 | 37.18695 | 14846 ft | 333 kts | 76° |
| 2026-05-05 10:11 | 56.14443 | 37.22734 | 14865 ft | 333 kts | 76° |
| 2026-05-05 10:11 | 56.14970 | 37.26721 | 14843 ft | 327 kts | 82° |
| 2026-05-05 10:12 | 56.14830 | 37.30784 | 14864 ft | 328 kts | 107° |
| 2026-05-05 10:12 | 56.13776 | 37.34388 | 14996 ft | 333 kts | 130° |
| 2026-05-05 10:12 | 56.12049 | 37.37185 | 15803 ft | 336 kts | 148° |
| 2026-05-05 10:12 | 56.09980 | 37.39091 | 16753 ft | 337 kts | 155° |
| 2026-05-05 10:13 | 56.07817 | 37.40840 | 17645 ft | 340 kts | 156° |
| 2026-05-05 10:13 | 56.06370 | 37.41994 | 18219 ft | 344 kts | 156° |
| 2026-05-05 10:13 | 56.03437 | 37.44366 | 19289 ft | 350 kts | 155° |
| 2026-05-05 10:13 | 56.01220 | 37.46202 | 19812 ft | 353 kts | 155° |
| 2026-05-05 10:14 | 55.99728 | 37.47447 | 19867 ft | 356 kts | 155° |
| 2026-05-05 10:14 | 55.97481 | 37.49328 | 19857 ft | 356 kts | 155° |
| 2026-05-05 10:14 | 55.94857 | 37.52675 | 19857 ft | 353 kts | 128° |
| 2026-05-05 10:14 | 55.93632 | 37.56483 | 20187 ft | 359 kts | 109° |
| 2026-05-05 10:15 | 55.93189 | 37.59392 | 20693 ft | 361 kts | 101° |
| 2026-05-05 10:15 | 55.92740 | 37.63794 | 21544 ft | 362 kts | 100° |
| 2026-05-05 10:15 | 55.92291 | 37.68243 | 22361 ft | 365 kts | 100° |
| 2026-05-05 10:15 | 55.91814 | 37.72708 | 23087 ft | 369 kts | 102° |
| 2026-05-05 10:16 | 55.90967 | 37.77045 | 23726 ft | 374 kts | 117° |
| 2026-05-05 10:16 | 55.89683 | 37.81090 | 24405 ft | 378 kts | 120° |
| 2026-05-05 10:16 | 55.88341 | 37.85139 | 25083 ft | 382 kts | 120° |
| 2026-05-05 10:16 | 55.87001 | 37.89236 | 25751 ft | 386 kts | 120° |
| 2026-05-05 10:17 | 55.85662 | 37.93408 | 26390 ft | 390 kts | 119° |
| 2026-05-05 10:17 | 55.84318 | 37.97660 | 27025 ft | 394 kts | 119° |
| 2026-05-05 10:17 | 55.82981 | 38.01922 | 27636 ft | 398 kts | 119° |
| 2026-05-05 10:17 | 55.81620 | 38.06255 | 28253 ft | 401 kts | 119° |
| 2026-05-05 10:18 | 55.80298 | 38.10594 | 28803 ft | 402 kts | 114° |
| 2026-05-05 10:18 | 55.79555 | 38.15382 | 29097 ft | 412 kts | 94° |
| 2026-05-05 10:18 | 55.79636 | 38.20580 | 29182 ft | 424 kts | 86° |
| 2026-05-05 10:18 | 55.79839 | 38.25851 | 29291 ft | 439 kts | 86° |
| 2026-05-05 10:19 | 55.80000 | 38.31368 | 29388 ft | 452 kts | 87° |
| 2026-05-05 10:19 | 55.80127 | 38.37076 | 29470 ft | 465 kts | 88° |
| 2026-05-05 10:19 | 55.81275 | 38.48481 | 29783 ft | 480 kts | 70° |
| 2026-05-05 10:20 | 55.82440 | 38.54097 | 30246 ft | 480 kts | 70° |
| 2026-05-05 10:20 | 55.83561 | 38.59690 | 30781 ft | 478 kts | 71° |
| 2026-05-05 10:20 | 55.84589 | 38.65239 | 31255 ft | 477 kts | 72° |
| 2026-05-05 10:20 | 55.85591 | 38.70888 | 31656 ft | 477 kts | 72° |
| 2026-05-05 10:21 | 55.86761 | 38.76467 | 32037 ft | 478 kts | 66° |
| 2026-05-05 10:21 | 55.88169 | 38.81759 | 32451 ft | 477 kts | 63° |
| 2026-05-05 10:21 | 55.89677 | 38.87032 | 32855 ft | 477 kts | 63° |
| 2026-05-05 10:21 | 55.91169 | 38.92286 | 33266 ft | 476 kts | 63° |
| 2026-05-05 10:22 | 55.92628 | 38.97597 | 33631 ft | 476 kts | 64° |
| 2026-05-05 10:22 | 55.94060 | 39.02976 | 33992 ft | 476 kts | 65° |
| 2026-05-05 10:22 | 55.95455 | 39.08286 | 34347 ft | 476 kts | 65° |
| 2026-05-05 10:22 | 55.96866 | 39.13669 | 34693 ft | 476 kts | 65° |
| 2026-05-05 10:23 | 55.99717 | 39.24466 | 34846 ft | 483 kts | 65° |
| 2026-05-05 10:23 | 56.02565 | 39.35259 | 34847 ft | 477 kts | 65° |
| 2026-05-05 10:24 | 56.05379 | 39.45986 | 34859 ft | 475 kts | 65° |
| 2026-05-05 10:24 | 56.08195 | 39.56643 | 34857 ft | 475 kts | 62° |
| 2026-05-05 10:25 | 56.11655 | 39.66725 | 34864 ft | 475 kts | 56° |
| 2026-05-05 10:25 | 56.15384 | 39.76609 | 34860 ft | 476 kts | 56° |
| 2026-05-05 10:26 | 56.19020 | 39.86531 | 34848 ft | 477 kts | 57° |
| 2026-05-05 10:26 | 56.22590 | 39.96549 | 34799 ft | 478 kts | 57° |
| 2026-05-05 10:27 | 56.26171 | 40.06701 | 34778 ft | 478 kts | 58° |
| 2026-05-05 10:27 | 56.29728 | 40.16812 | 34773 ft | 478 kts | 58° |
| 2026-05-05 10:28 | 56.33272 | 40.26919 | 34774 ft | 477 kts | 58° |
| 2026-05-05 10:28 | 56.36799 | 40.37014 | 34774 ft | 476 kts | 58° |
| 2026-05-05 10:29 | 56.40316 | 40.47125 | 34775 ft | 475 kts | 58° |
| 2026-05-05 10:29 | 56.43810 | 40.57212 | 34774 ft | 475 kts | 59° |
| 2026-05-05 10:30 | 56.46678 | 40.67931 | 34775 ft | 475 kts | 70° |
| 2026-05-05 10:30 | 56.48520 | 40.79392 | 34784 ft | 475 kts | 75° |
| 2026-05-05 10:31 | 56.50204 | 40.91023 | 34778 ft | 475 kts | 75° |
| 2026-05-05 10:31 | 56.51893 | 41.02589 | 34775 ft | 476 kts | 75° |
| 2026-05-05 10:32 | 56.53594 | 41.14124 | 34776 ft | 476 kts | 75° |
| 2026-05-05 10:32 | 56.55299 | 41.25711 | 34776 ft | 476 kts | 75° |
| 2026-05-05 10:33 | 56.56996 | 41.37329 | 34776 ft | 476 kts | 75° |
| 2026-05-05 10:33 | 56.58680 | 41.48950 | 34774 ft | 476 kts | 75° |
| 2026-05-05 10:34 | 56.60351 | 41.60569 | 34774 ft | 475 kts | 75° |
| 2026-05-05 10:34 | 56.62006 | 41.72162 | 34774 ft | 475 kts | 75° |
| 2026-05-05 10:35 | 56.63647 | 41.83745 | 34774 ft | 474 kts | 76° |
| 2026-05-05 10:35 | 56.65286 | 41.95397 | 34776 ft | 474 kts | 76° |
| 2026-05-05 10:36 | 56.66903 | 42.06981 | 34775 ft | 474 kts | 76° |
| 2026-05-05 10:36 | 56.68516 | 42.18627 | 34774 ft | 474 kts | 76° |
| 2026-05-05 10:37 | 56.70114 | 42.30248 | 34775 ft | 475 kts | 76° |
| 2026-05-05 10:37 | 56.71705 | 42.41906 | 34776 ft | 475 kts | 76° |
| 2026-05-05 10:38 | 56.73282 | 42.53537 | 34785 ft | 474 kts | 76° |
| 2026-05-05 10:38 | 56.74995 | 42.65140 | 34791 ft | 474 kts | 73° |
| 2026-05-05 10:39 | 56.76927 | 42.76638 | 34813 ft | 475 kts | 73° |
| 2026-05-05 10:39 | 56.78852 | 42.88142 | 34800 ft | 475 kts | 73° |
| 2026-05-05 10:40 | 56.80734 | 42.99696 | 34805 ft | 475 kts | 73° |
| 2026-05-05 10:40 | 56.82594 | 43.11321 | 34797 ft | 475 kts | 73° |
| 2026-05-05 10:41 | 56.84423 | 43.22848 | 34799 ft | 474 kts | 74° |
| 2026-05-05 10:41 | 56.86258 | 43.34478 | 34800 ft | 474 kts | 74° |
| 2026-05-05 10:42 | 56.88974 | 43.51840 | 34799 ft | 473 kts | 74° |
| 2026-05-05 10:43 | 56.90770 | 43.63412 | 34798 ft | 473 kts | 74° |
| 2026-05-05 10:43 | 56.92548 | 43.74955 | 34806 ft | 473 kts | 74° |
| 2026-05-05 10:44 | 56.94332 | 43.86612 | 34802 ft | 473 kts | 74° |
| 2026-05-05 10:44 | 56.96097 | 43.98230 | 34799 ft | 473 kts | 74° |
| 2026-05-05 10:45 | 56.97852 | 44.09862 | 34801 ft | 474 kts | 75° |
| 2026-05-05 10:45 | 56.99593 | 44.21484 | 34807 ft | 474 kts | 75° |
| 2026-05-05 10:46 | 57.01325 | 44.33133 | 34804 ft | 474 kts | 75° |
| 2026-05-05 10:46 | 57.03046 | 44.44783 | 34808 ft | 474 kts | 75° |
| 2026-05-05 10:47 | 57.04766 | 44.56520 | 34804 ft | 474 kts | 75° |
| 2026-05-05 10:47 | 57.06461 | 44.68167 | 34802 ft | 473 kts | 75° |
| 2026-05-05 10:48 | 57.08155 | 44.79892 | 34803 ft | 473 kts | 75° |
| 2026-05-05 10:48 | 57.09829 | 44.91566 | 34803 ft | 473 kts | 75° |
| 2026-05-05 10:49 | 57.11490 | 45.03234 | 34801 ft | 472 kts | 75° |
| 2026-05-05 10:49 | 57.13142 | 45.14922 | 34809 ft | 472 kts | 75° |
| 2026-05-05 10:50 | 57.14789 | 45.26672 | 34804 ft | 472 kts | 75° |
| 2026-05-05 10:50 | 57.16420 | 45.38392 | 34803 ft | 472 kts | 76° |
| 2026-05-05 10:51 | 57.18037 | 45.50096 | 34810 ft | 472 kts | 76° |
| 2026-05-05 10:51 | 57.19643 | 45.61816 | 34803 ft | 472 kts | 76° |
| 2026-05-05 10:52 | 57.21243 | 45.73574 | 34808 ft | 472 kts | 76° |
| 2026-05-05 10:52 | 57.22835 | 45.85370 | 34849 ft | 472 kts | 76° |
| 2026-05-05 10:53 | 57.24408 | 45.97114 | 34860 ft | 472 kts | 76° |
| 2026-05-05 10:53 | 57.25972 | 46.08887 | 34858 ft | 473 kts | 76° |
| 2026-05-05 10:54 | 57.27531 | 46.20712 | 34858 ft | 473 kts | 76° |
| 2026-05-05 10:54 | 57.29077 | 46.32533 | 34858 ft | 473 kts | 76° |
| 2026-05-05 10:55 | 57.30601 | 46.44285 | 34857 ft | 473 kts | 76° |
| 2026-05-05 10:55 | 57.32126 | 46.56133 | 34857 ft | 473 kts | 77° |
| 2026-05-05 10:56 | 57.33640 | 46.67982 | 34858 ft | 473 kts | 77° |
| 2026-05-05 10:56 | 57.35391 | 46.79730 | 34854 ft | 473 kts | 69° |
| 2026-05-05 10:57 | 57.38052 | 46.90844 | 34860 ft | 472 kts | 65° |
| 2026-05-05 10:57 | 57.40801 | 47.01874 | 34857 ft | 473 kts | 65° |
| 2026-05-05 10:58 | 57.43504 | 47.12969 | 34859 ft | 473 kts | 66° |
| 2026-05-05 10:58 | 57.45742 | 47.22278 | 34858 ft | 473 kts | 66° |
| 2026-05-05 10:59 | 57.48413 | 47.33432 | 34857 ft | 473 kts | 66° |
| 2026-05-05 10:59 | 57.51070 | 47.44575 | 34858 ft | 473 kts | 66° |
| 2026-05-05 11:00 | 57.53731 | 47.55770 | 34859 ft | 473 kts | 66° |
| 2026-05-05 11:00 | 57.56387 | 47.67003 | 34856 ft | 472 kts | 66° |
| 2026-05-05 11:01 | 57.59014 | 47.78168 | 34858 ft | 472 kts | 66° |
| 2026-05-05 11:01 | 57.61635 | 47.89371 | 34857 ft | 471 kts | 66° |
| 2026-05-05 11:02 | 57.64254 | 48.00620 | 34857 ft | 471 kts | 66° |
| 2026-05-05 11:02 | 57.66853 | 48.11847 | 34857 ft | 471 kts | 66° |
| 2026-05-05 11:03 | 57.69434 | 48.23051 | 34857 ft | 471 kts | 66° |
| 2026-05-05 11:03 | 57.72014 | 48.34306 | 34858 ft | 471 kts | 67° |
| 2026-05-05 11:04 | 57.74434 | 48.45687 | 34858 ft | 471 kts | 73° |
| 2026-05-05 11:04 | 57.75783 | 48.57672 | 34861 ft | 471 kts | 82° |
| 2026-05-05 11:05 | 57.76599 | 48.69769 | 34862 ft | 471 kts | 83° |
| 2026-05-05 11:05 | 57.77413 | 48.81970 | 34857 ft | 471 kts | 83° |
| 2026-05-05 11:06 | 57.78250 | 48.94176 | 34858 ft | 472 kts | 83° |
| 2026-05-05 11:06 | 57.79088 | 49.06384 | 34858 ft | 472 kts | 83° |
| 2026-05-05 11:07 | 57.79910 | 49.18506 | 34857 ft | 472 kts | 83° |
| 2026-05-05 11:07 | 57.80727 | 49.30747 | 34858 ft | 472 kts | 83° |
| 2026-05-05 11:08 | 57.81527 | 49.42929 | 34881 ft | 472 kts | 83° |
| 2026-05-05 11:08 | 57.82318 | 49.55168 | 34885 ft | 472 kts | 83° |
| 2026-05-05 11:09 | 57.83099 | 49.67435 | 34885 ft | 472 kts | 83° |
| 2026-05-05 11:09 | 57.83865 | 49.79643 | 34885 ft | 472 kts | 83° |
| 2026-05-05 11:10 | 57.84619 | 49.91856 | 34885 ft | 472 kts | 83° |
| 2026-05-05 11:10 | 57.85368 | 50.04167 | 34886 ft | 472 kts | 83° |
| 2026-05-05 11:11 | 57.86102 | 50.16403 | 34883 ft | 472 kts | 83° |
| 2026-05-05 11:11 | 57.86827 | 50.28638 | 34885 ft | 472 kts | 84° |
| 2026-05-05 11:12 | 57.87541 | 50.40899 | 34885 ft | 471 kts | 84° |
| 2026-05-05 11:12 | 57.88240 | 50.53112 | 34884 ft | 471 kts | 84° |
| 2026-05-05 11:13 | 57.88931 | 50.65386 | 34885 ft | 471 kts | 84° |
| 2026-05-05 11:13 | 57.89608 | 50.77631 | 34885 ft | 471 kts | 84° |
| 2026-05-05 11:14 | 57.90275 | 50.89913 | 34886 ft | 471 kts | 84° |
| 2026-05-05 11:14 | 57.90924 | 51.02081 | 34907 ft | 470 kts | 84° |
| 2026-05-05 11:15 | 57.91565 | 51.14336 | 34913 ft | 470 kts | 84° |
| 2026-05-05 11:15 | 57.92198 | 51.26641 | 34912 ft | 470 kts | 84° |
| 2026-05-05 11:16 | 57.92815 | 51.38858 | 34913 ft | 470 kts | 84° |
| 2026-05-05 11:16 | 57.93422 | 51.51116 | 34912 ft | 471 kts | 84° |
| 2026-05-05 11:17 | 57.94024 | 51.63373 | 34913 ft | 471 kts | 85° |
| 2026-05-05 11:17 | 57.94617 | 51.75655 | 34913 ft | 471 kts | 85° |
| 2026-05-05 11:18 | 57.95196 | 51.87889 | 34912 ft | 471 kts | 85° |
| 2026-05-05 11:18 | 57.95766 | 52.00208 | 34913 ft | 471 kts | 85° |
| 2026-05-05 11:19 | 57.96322 | 52.12436 | 34912 ft | 471 kts | 85° |
| 2026-05-05 11:19 | 57.96867 | 52.24754 | 34913 ft | 471 kts | 85° |
| 2026-05-05 11:20 | 57.97397 | 52.36985 | 34911 ft | 471 kts | 85° |
| 2026-05-05 11:20 | 57.97919 | 52.49307 | 34912 ft | 471 kts | 85° |
| 2026-05-05 11:21 | 57.98427 | 52.61570 | 34912 ft | 471 kts | 85° |
| 2026-05-05 11:21 | 57.98926 | 52.73904 | 34913 ft | 471 kts | 85° |
| 2026-05-05 11:22 | 57.99412 | 52.86212 | 34912 ft | 471 kts | 86° |
| 2026-05-05 11:22 | 57.99884 | 52.98445 | 34913 ft | 470 kts | 86° |
| 2026-05-05 11:23 | 58.00346 | 53.10745 | 34892 ft | 471 kts | 86° |
| 2026-05-05 11:23 | 58.00797 | 53.23087 | 34836 ft | 472 kts | 86° |
| 2026-05-05 11:24 | 58.01237 | 53.35428 | 34830 ft | 471 kts | 86° |
| 2026-05-05 11:24 | 58.01663 | 53.47744 | 34833 ft | 471 kts | 86° |
| 2026-05-05 11:25 | 58.02068 | 53.59777 | 34830 ft | 471 kts | 86° |
| 2026-05-05 11:25 | 58.02477 | 53.72272 | 34834 ft | 470 kts | 86° |
| 2026-05-05 11:26 | 58.02869 | 53.84626 | 34831 ft | 470 kts | 86° |
| 2026-05-05 11:26 | 58.03250 | 53.96942 | 34825 ft | 470 kts | 86° |
| 2026-05-05 11:27 | 58.03619 | 54.09261 | 34831 ft | 469 kts | 86° |
| 2026-05-05 11:27 | 58.03980 | 54.21539 | 34832 ft | 469 kts | 87° |
| 2026-05-05 11:28 | 58.04331 | 54.33843 | 34830 ft | 469 kts | 87° |
| 2026-05-05 11:28 | 58.04670 | 54.46160 | 34829 ft | 470 kts | 87° |
| 2026-05-05 11:29 | 58.04994 | 54.58369 | 34832 ft | 470 kts | 87° |
| 2026-05-05 11:29 | 58.05313 | 54.70742 | 34832 ft | 470 kts | 87° |
| 2026-05-05 11:30 | 58.05260 | 54.83070 | 34813 ft | 470 kts | 97° |
| 2026-05-05 11:30 | 58.04368 | 54.95191 | 34830 ft | 470 kts | 98° |
| 2026-05-05 11:31 | 58.03447 | 55.07385 | 34830 ft | 470 kts | 98° |
| 2026-05-05 11:31 | 58.02562 | 55.19615 | 34830 ft | 470 kts | 98° |
| 2026-05-05 11:32 | 58.01673 | 55.31817 | 34834 ft | 470 kts | 98° |
| 2026-05-05 11:32 | 58.00776 | 55.44029 | 34830 ft | 470 kts | 98° |
| 2026-05-05 11:33 | 57.99872 | 55.56212 | 34830 ft | 470 kts | 98° |
| 2026-05-05 11:33 | 57.98957 | 55.68396 | 34831 ft | 469 kts | 98° |
| 2026-05-05 11:34 | 57.98033 | 55.80546 | 34829 ft | 469 kts | 98° |
| 2026-05-05 11:34 | 57.97097 | 55.92685 | 34830 ft | 469 kts | 98° |
| 2026-05-05 11:35 | 57.96148 | 56.04870 | 34830 ft | 469 kts | 98° |
| 2026-05-05 11:35 | 57.95198 | 56.16939 | 34830 ft | 469 kts | 98° |
| 2026-05-05 11:36 | 57.94226 | 56.29144 | 34833 ft | 469 kts | 98° |
| 2026-05-05 11:36 | 57.93253 | 56.41205 | 34830 ft | 469 kts | 98° |
| 2026-05-05 11:37 | 57.92261 | 56.53361 | 34834 ft | 469 kts | 98° |
| 2026-05-05 11:37 | 57.91257 | 56.65503 | 34830 ft | 470 kts | 99° |
| 2026-05-05 11:38 | 57.90244 | 56.77613 | 34831 ft | 470 kts | 99° |
| 2026-05-05 11:38 | 57.89219 | 56.89724 | 34832 ft | 470 kts | 99° |
| 2026-05-05 11:39 | 57.88178 | 57.01875 | 34819 ft | 470 kts | 99° |
| 2026-05-05 11:39 | 57.87128 | 57.13995 | 34829 ft | 470 kts | 99° |
| 2026-05-05 11:40 | 57.86065 | 57.26119 | 34833 ft | 470 kts | 99° |
| 2026-05-05 11:40 | 57.84994 | 57.38208 | 34833 ft | 470 kts | 99° |
| 2026-05-05 11:41 | 57.83909 | 57.50304 | 34829 ft | 470 kts | 99° |
| 2026-05-05 11:41 | 57.82814 | 57.62389 | 34831 ft | 470 kts | 99° |
| 2026-05-05 11:42 | 57.81714 | 57.74393 | 34831 ft | 470 kts | 99° |
| 2026-05-05 11:42 | 57.80586 | 57.86562 | 34830 ft | 470 kts | 100° |
| 2026-05-05 11:43 | 57.79460 | 57.98614 | 34830 ft | 470 kts | 100° |
| 2026-05-05 11:43 | 57.78326 | 58.10608 | 34828 ft | 470 kts | 100° |
| 2026-05-05 11:44 | 57.77186 | 58.22615 | 34832 ft | 471 kts | 100° |
| 2026-05-05 11:44 | 57.76023 | 58.34737 | 34829 ft | 471 kts | 100° |
| 2026-05-05 11:45 | 57.74852 | 58.46827 | 34831 ft | 471 kts | 100° |
| 2026-05-05 11:45 | 57.73676 | 58.58886 | 34832 ft | 471 kts | 100° |
| 2026-05-05 11:46 | 57.72490 | 58.70936 | 34830 ft | 471 kts | 100° |
| 2026-05-05 11:46 | 57.71290 | 58.83008 | 34831 ft | 471 kts | 101° |
| 2026-05-05 11:47 | 57.70079 | 58.95065 | 34845 ft | 470 kts | 101° |
| 2026-05-05 11:47 | 57.69067 | 59.05037 | 34879 ft | 470 kts | 101° |
| 2026-05-05 11:48 | 57.67227 | 59.22981 | 34883 ft | 470 kts | 101° |
| 2026-05-05 11:48 | 57.65979 | 59.34992 | 34886 ft | 471 kts | 101° |
| 2026-05-05 11:49 | 57.64718 | 59.47021 | 34886 ft | 472 kts | 101° |
| 2026-05-05 11:49 | 57.63445 | 59.59040 | 34885 ft | 472 kts | 101° |
| 2026-05-05 11:50 | 57.62155 | 59.71107 | 34883 ft | 473 kts | 101° |
| 2026-05-05 11:50 | 57.60873 | 59.82989 | 34887 ft | 473 kts | 101° |
| 2026-05-05 11:51 | 57.59551 | 59.95117 | 34885 ft | 473 kts | 101° |
| 2026-05-05 11:51 | 57.58230 | 60.07129 | 34887 ft | 472 kts | 102° |
| 2026-05-05 11:52 | 57.56910 | 60.19027 | 34884 ft | 472 kts | 102° |
| 2026-05-05 11:52 | 57.55563 | 60.31048 | 34887 ft | 471 kts | 102° |
| 2026-05-05 11:53 | 57.54223 | 60.42910 | 34886 ft | 471 kts | 102° |
| 2026-05-05 11:53 | 57.52864 | 60.54840 | 34885 ft | 471 kts | 102° |
| 2026-05-05 11:54 | 57.51925 | 60.66856 | 34885 ft | 471 kts | 93° |
| 2026-05-05 11:54 | 57.51612 | 60.79036 | 34885 ft | 471 kts | 92° |
| 2026-05-05 11:55 | 57.51297 | 60.91177 | 34885 ft | 471 kts | 93° |
| 2026-05-05 11:55 | 57.50936 | 61.03358 | 34886 ft | 471 kts | 93° |
| 2026-05-05 11:56 | 57.50550 | 61.15520 | 34884 ft | 471 kts | 93° |
| 2026-05-05 11:56 | 57.50151 | 61.27688 | 34885 ft | 471 kts | 94° |
| 2026-05-05 11:57 | 57.49744 | 61.39836 | 34885 ft | 471 kts | 94° |
| 2026-05-05 11:57 | 57.49327 | 61.51967 | 34885 ft | 471 kts | 94° |
| 2026-05-05 11:58 | 57.48897 | 61.64124 | 34884 ft | 471 kts | 94° |
| 2026-05-05 11:58 | 57.48454 | 61.76307 | 34885 ft | 471 kts | 94° |
| 2026-05-05 11:59 | 57.48004 | 61.88414 | 34885 ft | 471 kts | 94° |
| 2026-05-05 11:59 | 57.47543 | 62.00543 | 34885 ft | 470 kts | 94° |
| 2026-05-05 12:00 | 57.47075 | 62.12581 | 34886 ft | 470 kts | 94° |
| 2026-05-05 12:00 | 57.46591 | 62.24718 | 34885 ft | 470 kts | 94° |
| 2026-05-05 12:01 | 57.46106 | 62.36755 | 34885 ft | 470 kts | 94° |
| 2026-05-05 12:01 | 57.45610 | 62.48889 | 34885 ft | 470 kts | 94° |
| 2026-05-05 12:02 | 57.45104 | 62.60966 | 34885 ft | 470 kts | 94° |
| 2026-05-05 12:02 | 57.44582 | 62.73126 | 34885 ft | 470 kts | 95° |
| 2026-05-05 12:03 | 57.44054 | 62.85167 | 34885 ft | 470 kts | 95° |
| 2026-05-05 12:03 | 57.43515 | 62.97184 | 34886 ft | 470 kts | 95° |
| 2026-05-05 12:04 | 57.42968 | 63.09125 | 34886 ft | 470 kts | 95° |
| 2026-05-05 12:04 | 57.42396 | 63.21358 | 34886 ft | 471 kts | 95° |
| 2026-05-05 12:05 | 57.41819 | 63.33451 | 34885 ft | 471 kts | 95° |
| 2026-05-05 12:05 | 57.41229 | 63.45553 | 34886 ft | 472 kts | 95° |
| 2026-05-05 12:06 | 57.40627 | 63.57679 | 34884 ft | 472 kts | 95° |
| 2026-05-05 12:06 | 57.40015 | 63.69804 | 34885 ft | 472 kts | 95° |
| 2026-05-05 12:07 | 57.38984 | 63.81766 | 34880 ft | 472 kts | 104° |
| 2026-05-05 12:07 | 57.37311 | 63.93334 | 34885 ft | 471 kts | 105° |
| 2026-05-05 12:08 | 57.35574 | 64.05215 | 34885 ft | 471 kts | 105° |
| 2026-05-05 12:08 | 57.33888 | 64.16937 | 34885 ft | 471 kts | 105° |
| 2026-05-05 12:09 | 57.32202 | 64.28669 | 34885 ft | 471 kts | 105° |
| 2026-05-05 12:09 | 57.30514 | 64.40322 | 34885 ft | 471 kts | 105° |
| 2026-05-05 12:10 | 57.28805 | 64.52031 | 34885 ft | 471 kts | 105° |
| 2026-05-05 12:10 | 57.27083 | 64.63715 | 34884 ft | 471 kts | 105° |
| 2026-05-05 12:11 | 57.25351 | 64.75384 | 34885 ft | 471 kts | 105° |
| 2026-05-05 12:11 | 57.23614 | 64.87024 | 34885 ft | 471 kts | 105° |
| 2026-05-05 12:12 | 57.21858 | 64.98710 | 34885 ft | 471 kts | 105° |
| 2026-05-05 12:12 | 57.20098 | 65.10337 | 34885 ft | 471 kts | 105° |
| 2026-05-05 12:13 | 57.18325 | 65.21988 | 34885 ft | 471 kts | 105° |
| 2026-05-05 12:13 | 57.16582 | 65.33636 | 34883 ft | 471 kts | 103° |
| 2026-05-05 12:14 | 57.15172 | 65.45326 | 34887 ft | 471 kts | 102° |
| 2026-05-05 12:14 | 57.13805 | 65.57120 | 34884 ft | 471 kts | 102° |
| 2026-05-05 12:15 | 57.12414 | 65.68917 | 34884 ft | 471 kts | 102° |
| 2026-05-05 12:15 | 57.10994 | 65.80711 | 34886 ft | 472 kts | 102° |
| 2026-05-05 12:16 | 57.09562 | 65.92456 | 34886 ft | 472 kts | 103° |
| 2026-05-05 12:16 | 57.08111 | 66.04249 | 34885 ft | 472 kts | 103° |
| 2026-05-05 12:17 | 57.06651 | 66.16025 | 34885 ft | 472 kts | 103° |
| 2026-05-05 12:17 | 57.05179 | 66.27801 | 34885 ft | 472 kts | 103° |
| 2026-05-05 12:18 | 57.03699 | 66.39545 | 34885 ft | 472 kts | 103° |
| 2026-05-05 12:18 | 57.02216 | 66.51222 | 34885 ft | 472 kts | 103° |
| 2026-05-05 12:19 | 57.00739 | 66.62753 | 34885 ft | 472 kts | 103° |
| 2026-05-05 12:19 | 56.99226 | 66.74468 | 34885 ft | 472 kts | 103° |
| 2026-05-05 12:20 | 56.97675 | 66.86382 | 34885 ft | 472 kts | 103° |
| 2026-05-05 12:20 | 56.96139 | 66.98091 | 34885 ft | 472 kts | 103° |
| 2026-05-05 12:21 | 56.94593 | 67.09784 | 34885 ft | 472 kts | 103° |
| 2026-05-05 12:21 | 56.93035 | 67.21471 | 34887 ft | 472 kts | 104° |
| 2026-05-05 12:22 | 56.91465 | 67.33163 | 34881 ft | 473 kts | 104° |
| 2026-05-05 12:22 | 56.89884 | 67.44838 | 34882 ft | 473 kts | 104° |
| 2026-05-05 12:23 | 56.88293 | 67.56501 | 34886 ft | 474 kts | 104° |
| 2026-05-05 12:23 | 56.86681 | 67.68225 | 34887 ft | 474 kts | 104° |
| 2026-05-05 12:24 | 56.85064 | 67.79895 | 34882 ft | 474 kts | 104° |
| 2026-05-05 12:24 | 56.83436 | 67.91560 | 34881 ft | 474 kts | 104° |
| 2026-05-05 12:25 | 56.81794 | 68.03236 | 34886 ft | 474 kts | 104° |
| 2026-05-05 12:25 | 56.80146 | 68.14869 | 34888 ft | 474 kts | 104° |
| 2026-05-05 12:26 | 56.78497 | 68.26418 | 34885 ft | 474 kts | 104° |
| 2026-05-05 12:26 | 56.76826 | 68.38038 | 34881 ft | 474 kts | 104° |
| 2026-05-05 12:27 | 56.75144 | 68.49652 | 34887 ft | 474 kts | 105° |
| 2026-05-05 12:27 | 56.73453 | 68.61239 | 34887 ft | 473 kts | 105° |
| 2026-05-05 12:28 | 56.71774 | 68.72662 | 34884 ft | 474 kts | 105° |
| 2026-05-05 12:28 | 56.70036 | 68.84400 | 34885 ft | 474 kts | 105° |
| 2026-05-05 12:29 | 56.68310 | 68.95981 | 34886 ft | 474 kts | 105° |
| 2026-05-05 12:29 | 56.66568 | 69.07578 | 34885 ft | 475 kts | 105° |
| 2026-05-05 12:30 | 56.64826 | 69.19101 | 34885 ft | 475 kts | 105° |
| 2026-05-05 12:30 | 56.63057 | 69.30714 | 34885 ft | 475 kts | 105° |
| 2026-05-05 12:31 | 56.61281 | 69.42297 | 34885 ft | 475 kts | 105° |
| 2026-05-05 12:31 | 56.59516 | 69.53724 | 34885 ft | 475 kts | 105° |
| 2026-05-05 12:32 | 56.57721 | 69.65268 | 34885 ft | 475 kts | 105° |
| 2026-05-05 12:32 | 56.55917 | 69.76795 | 34885 ft | 475 kts | 106° |
| 2026-05-05 12:33 | 56.54121 | 69.88193 | 34885 ft | 475 kts | 106° |
| 2026-05-05 12:33 | 56.52292 | 69.99732 | 34885 ft | 475 kts | 106° |
| 2026-05-05 12:34 | 56.50364 | 70.11144 | 34878 ft | 475 kts | 108° |
| 2026-05-05 12:34 | 56.48303 | 70.22529 | 34888 ft | 475 kts | 108° |
| 2026-05-05 12:35 | 56.46242 | 70.33867 | 34884 ft | 475 kts | 108° |
| 2026-05-05 12:35 | 56.44188 | 70.45205 | 34881 ft | 476 kts | 108° |
| 2026-05-05 12:36 | 56.42125 | 70.56579 | 34887 ft | 476 kts | 108° |
| 2026-05-05 12:36 | 56.40054 | 70.67933 | 34885 ft | 476 kts | 108° |
| 2026-05-05 12:37 | 56.38346 | 70.77246 | 34885 ft | 476 kts | 108° |
| 2026-05-05 12:37 | 56.35879 | 70.90607 | 34887 ft | 476 kts | 108° |
| 2026-05-05 12:38 | 56.34132 | 71.00012 | 34884 ft | 476 kts | 108° |
| 2026-05-05 12:38 | 56.32025 | 71.11290 | 34883 ft | 476 kts | 109° |
| 2026-05-05 12:39 | 56.29558 | 71.24410 | 34881 ft | 476 kts | 109° |
| 2026-05-05 12:39 | 56.27768 | 71.33879 | 34881 ft | 476 kts | 109° |
| 2026-05-05 12:40 | 56.25627 | 71.45141 | 34882 ft | 476 kts | 109° |
| 2026-05-05 12:40 | 56.23471 | 71.56411 | 34865 ft | 477 kts | 109° |
| 2026-05-05 12:41 | 56.21359 | 71.67390 | 34858 ft | 477 kts | 109° |
| 2026-05-05 12:41 | 56.19119 | 71.78965 | 34858 ft | 477 kts | 109° |
| 2026-05-05 12:42 | 56.16946 | 71.90132 | 34858 ft | 477 kts | 109° |
| 2026-05-05 12:42 | 56.14745 | 72.01375 | 34857 ft | 477 kts | 109° |
| 2026-05-05 12:43 | 56.12548 | 72.12530 | 34857 ft | 477 kts | 109° |
| 2026-05-05 12:43 | 56.10348 | 72.23641 | 34858 ft | 477 kts | 109° |
| 2026-05-05 12:44 | 56.08137 | 72.34747 | 34858 ft | 477 kts | 109° |
| 2026-05-05 12:44 | 56.05908 | 72.45876 | 34857 ft | 477 kts | 110° |
| 2026-05-05 12:45 | 56.03605 | 72.57310 | 34857 ft | 477 kts | 110° |
| 2026-05-05 12:45 | 56.01377 | 72.68311 | 34858 ft | 477 kts | 110° |
| 2026-05-05 12:46 | 55.99086 | 72.79559 | 34858 ft | 478 kts | 110° |
| 2026-05-05 12:46 | 55.96787 | 72.90781 | 34858 ft | 478 kts | 110° |
| 2026-05-05 12:47 | 55.94492 | 73.01927 | 34858 ft | 478 kts | 110° |
| 2026-05-05 12:47 | 55.92189 | 73.13056 | 34858 ft | 478 kts | 110° |
| 2026-05-05 12:48 | 55.89956 | 73.24225 | 34857 ft | 478 kts | 106° |
| 2026-05-05 12:48 | 55.88647 | 73.35834 | 34864 ft | 478 kts | 98° |
| 2026-05-05 12:49 | 55.87692 | 73.47472 | 34859 ft | 478 kts | 98° |
| 2026-05-05 12:49 | 55.86701 | 73.59174 | 34857 ft | 478 kts | 98° |
| 2026-05-05 12:50 | 55.85672 | 73.70868 | 34858 ft | 478 kts | 99° |
| 2026-05-05 12:50 | 55.84621 | 73.82552 | 34856 ft | 478 kts | 99° |
| 2026-05-05 12:51 | 55.83558 | 73.94244 | 34859 ft | 478 kts | 99° |
| 2026-05-05 12:51 | 55.82485 | 74.05937 | 34858 ft | 479 kts | 99° |
| 2026-05-05 12:52 | 55.81402 | 74.17623 | 34858 ft | 479 kts | 99° |
| 2026-05-05 12:52 | 55.80308 | 74.29294 | 34858 ft | 479 kts | 99° |
| 2026-05-05 12:53 | 55.79202 | 74.40974 | 34858 ft | 479 kts | 99° |
| 2026-05-05 12:53 | 55.78085 | 74.52648 | 34857 ft | 479 kts | 99° |
| 2026-05-05 12:54 | 55.76388 | 74.70169 | 34858 ft | 479 kts | 99° |
| 2026-05-05 12:55 | 55.75243 | 74.81817 | 34858 ft | 479 kts | 100° |
| 2026-05-05 12:55 | 55.74086 | 74.93470 | 34858 ft | 479 kts | 100° |
| 2026-05-05 12:56 | 55.72926 | 75.05045 | 34856 ft | 479 kts | 100° |
| 2026-05-05 12:56 | 55.71749 | 75.16690 | 34859 ft | 480 kts | 100° |
| 2026-05-05 12:57 | 55.70560 | 75.28335 | 34858 ft | 480 kts | 100° |
| 2026-05-05 12:57 | 55.69360 | 75.39973 | 34858 ft | 480 kts | 100° |
| 2026-05-05 12:58 | 55.68149 | 75.51616 | 34858 ft | 480 kts | 100° |
| 2026-05-05 12:58 | 55.66926 | 75.63255 | 34858 ft | 481 kts | 101° |
| 2026-05-05 12:59 | 55.65693 | 75.74887 | 34857 ft | 481 kts | 101° |
| 2026-05-05 12:59 | 55.64451 | 75.86513 | 34857 ft | 480 kts | 101° |
| 2026-05-05 13:00 | 55.62570 | 76.03929 | 34857 ft | 480 kts | 101° |
| 2026-05-05 13:01 | 55.60022 | 76.27139 | 34857 ft | 480 kts | 101° |
| 2026-05-05 13:01 | 55.58732 | 76.38723 | 34857 ft | 480 kts | 101° |
| 2026-05-05 13:02 | 55.57431 | 76.50306 | 34856 ft | 480 kts | 101° |
| 2026-05-05 13:02 | 55.56129 | 76.61799 | 34859 ft | 481 kts | 101° |
| 2026-05-05 13:03 | 55.54805 | 76.73376 | 34858 ft | 481 kts | 101° |
| 2026-05-05 13:03 | 55.53469 | 76.84954 | 34858 ft | 481 kts | 101° |
| 2026-05-05 13:04 | 55.52122 | 76.96530 | 34858 ft | 482 kts | 102° |
| 2026-05-05 13:04 | 55.50763 | 77.08102 | 34857 ft | 482 kts | 102° |
| 2026-05-05 13:05 | 55.49392 | 77.19673 | 34857 ft | 482 kts | 102° |
| 2026-05-05 13:05 | 55.48012 | 77.31229 | 34857 ft | 482 kts | 102° |
| 2026-05-05 13:06 | 55.46621 | 77.42776 | 34857 ft | 482 kts | 102° |
| 2026-05-05 13:06 | 55.45219 | 77.54312 | 34857 ft | 481 kts | 102° |
| 2026-05-05 13:07 | 55.43806 | 77.65838 | 34857 ft | 481 kts | 102° |
| 2026-05-05 13:07 | 55.42382 | 77.77366 | 34857 ft | 481 kts | 102° |
| 2026-05-05 13:08 | 55.40950 | 77.88859 | 34857 ft | 481 kts | 102° |
| 2026-05-05 13:08 | 55.39516 | 78.00275 | 34903 ft | 481 kts | 102° |
| 2026-05-05 13:09 | 55.38062 | 78.11763 | 34949 ft | 481 kts | 102° |
| 2026-05-05 13:09 | 55.36600 | 78.23236 | 34891 ft | 482 kts | 103° |
| 2026-05-05 13:10 | 55.35846 | 78.29063 | 33959 ft | 494 kts | 103° |
| 2026-05-05 13:10 | 55.34915 | 78.34867 | 33142 ft | 492 kts | 108° |
| 2026-05-05 13:10 | 55.33848 | 78.40598 | 32256 ft | 498 kts | 108° |
| 2026-05-05 13:10 | 55.32731 | 78.46418 | 31444 ft | 503 kts | 109° |
| 2026-05-05 13:11 | 55.31628 | 78.52115 | 30511 ft | 481 kts | 109° |
| 2026-05-05 13:11 | 55.30583 | 78.57535 | 29926 ft | 459 kts | 109° |
| 2026-05-05 13:11 | 55.29576 | 78.62783 | 29347 ft | 451 kts | 108° |
| 2026-05-05 13:11 | 55.28567 | 78.68059 | 28778 ft | 461 kts | 108° |
| 2026-05-05 13:12 | 55.27545 | 78.73417 | 28212 ft | 463 kts | 108° |
| 2026-05-05 13:12 | 55.26528 | 78.78737 | 27634 ft | 458 kts | 108° |
| 2026-05-05 13:12 | 55.25521 | 78.83998 | 27071 ft | 452 kts | 108° |
| 2026-05-05 13:12 | 55.24519 | 78.89222 | 26522 ft | 454 kts | 108° |
| 2026-05-05 13:13 | 55.23507 | 78.94476 | 25962 ft | 456 kts | 109° |
| 2026-05-05 13:13 | 55.22498 | 78.99700 | 25386 ft | 447 kts | 109° |
| 2026-05-05 13:13 | 55.21517 | 79.04767 | 24831 ft | 431 kts | 109° |
| 2026-05-05 13:13 | 55.20565 | 79.09668 | 24304 ft | 419 kts | 109° |
| 2026-05-05 13:14 | 55.19638 | 79.14429 | 23797 ft | 409 kts | 109° |
| 2026-05-05 13:14 | 55.18717 | 79.19150 | 23321 ft | 413 kts | 109° |
| 2026-05-05 13:14 | 55.17781 | 79.23931 | 22816 ft | 418 kts | 109° |
| 2026-05-05 13:14 | 55.16833 | 79.28767 | 22300 ft | 422 kts | 109° |
| 2026-05-05 13:15 | 55.15888 | 79.33573 | 21756 ft | 412 kts | 109° |
| 2026-05-05 13:15 | 55.14968 | 79.38242 | 21251 ft | 402 kts | 109° |
| 2026-05-05 13:15 | 55.14062 | 79.42824 | 20758 ft | 395 kts | 109° |
| 2026-05-05 13:15 | 55.13172 | 79.47320 | 20272 ft | 390 kts | 109° |
| 2026-05-05 13:16 | 55.12276 | 79.51837 | 19807 ft | 396 kts | 109° |
| 2026-05-05 13:16 | 55.11366 | 79.56412 | 19313 ft | 402 kts | 109° |
| 2026-05-05 13:16 | 55.10442 | 79.61049 | 18811 ft | 407 kts | 109° |
| 2026-05-05 13:16 | 55.09512 | 79.65708 | 18281 ft | 401 kts | 109° |
| 2026-05-05 13:17 | 55.08607 | 79.70228 | 17783 ft | 388 kts | 109° |
| 2026-05-05 13:17 | 55.07725 | 79.74618 | 17299 ft | 383 kts | 109° |
| 2026-05-05 13:17 | 55.06918 | 79.79091 | 16822 ft | 390 kts | 103° |
| 2026-05-05 13:17 | 55.06504 | 79.83801 | 16333 ft | 394 kts | 94° |
| 2026-05-05 13:18 | 55.06476 | 79.88480 | 15831 ft | 380 kts | 86° |
| 2026-05-05 13:18 | 55.06709 | 79.93012 | 15368 ft | 382 kts | 84° |
| 2026-05-05 13:18 | 55.06965 | 79.97588 | 14862 ft | 375 kts | 84° |
| 2026-05-05 13:18 | 55.07216 | 80.02065 | 14381 ft | 366 kts | 84° |
| 2026-05-05 13:19 | 55.07454 | 80.06440 | 13908 ft | 359 kts | 84° |
| 2026-05-05 13:19 | 55.07682 | 80.10747 | 13448 ft | 353 kts | 85° |
| 2026-05-05 13:19 | 55.07902 | 80.14989 | 12993 ft | 348 kts | 85° |
| 2026-05-05 13:19 | 55.08117 | 80.19239 | 12556 ft | 357 kts | 85° |
| 2026-05-05 13:20 | 55.08336 | 80.23603 | 12088 ft | 362 kts | 85° |
| 2026-05-05 13:20 | 55.08550 | 80.27936 | 11605 ft | 355 kts | 85° |
| 2026-05-05 13:20 | 55.08757 | 80.32177 | 11147 ft | 348 kts | 85° |
| 2026-05-05 13:20 | 55.08959 | 80.36341 | 10825 ft | 338 kts | 85° |
| 2026-05-05 13:21 | 55.09152 | 80.40353 | 10671 ft | 325 kts | 85° |
| 2026-05-05 13:21 | 55.09338 | 80.44224 | 10539 ft | 314 kts | 85° |
| 2026-05-05 13:21 | 55.09515 | 80.47961 | 10402 ft | 303 kts | 85° |
| 2026-05-05 13:21 | 55.09686 | 80.51569 | 10277 ft | 294 kts | 85° |
| 2026-05-05 13:22 | 55.09850 | 80.55075 | 10158 ft | 286 kts | 85° |
| 2026-05-05 13:22 | 55.10009 | 80.58482 | 10041 ft | 278 kts | 85° |
| 2026-05-05 13:22 | 55.10163 | 80.61787 | 9840 ft | 270 kts | 85° |
| 2026-05-05 13:22 | 55.10312 | 80.65033 | 9578 ft | 265 kts | 85° |
| 2026-05-05 13:23 | 55.10458 | 80.68219 | 9328 ft | 262 kts | 85° |
| 2026-05-05 13:23 | 55.10600 | 80.71329 | 9073 ft | 259 kts | 85° |
| 2026-05-05 13:23 | 55.10741 | 80.74440 | 8819 ft | 256 kts | 85° |
| 2026-05-05 13:23 | 55.10880 | 80.77521 | 8556 ft | 254 kts | 85° |
| 2026-05-05 13:24 | 55.11017 | 80.80584 | 8308 ft | 252 kts | 85° |
| 2026-05-05 13:24 | 55.11153 | 80.83626 | 8060 ft | 250 kts | 85° |
| 2026-05-05 13:24 | 55.11288 | 80.86648 | 7807 ft | 249 kts | 85° |
| 2026-05-05 13:24 | 55.11423 | 80.89703 | 7583 ft | 259 kts | 85° |
| 2026-05-05 13:25 | 55.11564 | 80.92931 | 7336 ft | 274 kts | 85° |
| 2026-05-05 13:25 | 55.11708 | 80.96257 | 7241 ft | 272 kts | 86° |
| 2026-05-05 13:25 | 55.11781 | 80.99447 | 7067 ft | 254 kts | 89° |
| 2026-05-05 13:25 | 55.11791 | 81.02524 | 7023 ft | 255 kts | 90° |
| 2026-05-05 13:26 | 55.11792 | 81.05643 | 7009 ft | 258 kts | 90° |
| 2026-05-05 13:26 | 55.11794 | 81.08758 | 6996 ft | 255 kts | 90° |
| 2026-05-05 13:26 | 55.11796 | 81.10840 | 6981 ft | 253 kts | 90° |
| 2026-05-05 13:26 | 55.11802 | 81.14882 | 6993 ft | 251 kts | 90° |
| 2026-05-05 13:27 | 55.11807 | 81.17938 | 6990 ft | 252 kts | 90° |
| 2026-05-05 13:27 | 55.11813 | 81.20998 | 6996 ft | 252 kts | 90° |
| 2026-05-05 13:27 | 55.11818 | 81.24070 | 7004 ft | 253 kts | 90° |
| 2026-05-05 13:27 | 55.11824 | 81.27149 | 6995 ft | 254 kts | 90° |
| 2026-05-05 13:28 | 55.11827 | 81.29193 | 6994 ft | 254 kts | 90° |
| 2026-05-05 13:28 | 55.11832 | 81.32279 | 6993 ft | 254 kts | 90° |
| 2026-05-05 13:28 | 55.11837 | 81.35362 | 6992 ft | 254 kts | 90° |
| 2026-05-05 13:28 | 55.11840 | 81.38449 | 6993 ft | 254 kts | 90° |
| 2026-05-05 13:29 | 55.11843 | 81.41526 | 6998 ft | 253 kts | 90° |
| 2026-05-05 13:29 | 55.11846 | 81.44602 | 6990 ft | 253 kts | 90° |
| 2026-05-05 13:29 | 55.11847 | 81.47679 | 6990 ft | 253 kts | 90° |
| 2026-05-05 13:29 | 55.11848 | 81.50747 | 6992 ft | 252 kts | 90° |
| 2026-05-05 13:30 | 55.11848 | 81.53814 | 6993 ft | 252 kts | 90° |
| 2026-05-05 13:30 | 55.11847 | 81.56877 | 6993 ft | 252 kts | 90° |
| 2026-05-05 13:30 | 55.11846 | 81.59938 | 6994 ft | 252 kts | 90° |
| 2026-05-05 13:30 | 55.11844 | 81.62996 | 6992 ft | 252 kts | 90° |
| 2026-05-05 13:31 | 55.11841 | 81.66063 | 6996 ft | 252 kts | 90° |
| 2026-05-05 13:31 | 55.11837 | 81.69119 | 6990 ft | 252 kts | 90° |
| 2026-05-05 13:31 | 55.11834 | 81.72183 | 6994 ft | 252 kts | 90° |
| 2026-05-05 13:31 | 55.11829 | 81.75254 | 6996 ft | 252 kts | 90° |
| 2026-05-05 13:32 | 55.11823 | 81.78317 | 6991 ft | 253 kts | 90° |
| 2026-05-05 13:32 | 55.11815 | 81.81383 | 6993 ft | 253 kts | 90° |
| 2026-05-05 13:32 | 55.11808 | 81.84454 | 6991 ft | 253 kts | 90° |
| 2026-05-05 13:32 | 55.11799 | 81.87522 | 6994 ft | 253 kts | 90° |
| 2026-05-05 13:33 | 55.11789 | 81.90596 | 6998 ft | 253 kts | 90° |
| 2026-05-05 13:33 | 55.11779 | 81.93668 | 6996 ft | 253 kts | 90° |
| 2026-05-05 13:33 | 55.11768 | 81.96741 | 6993 ft | 253 kts | 90° |
| 2026-05-05 13:33 | 55.11756 | 81.99811 | 6998 ft | 253 kts | 90° |
| 2026-05-05 13:34 | 55.11744 | 82.02886 | 6997 ft | 253 kts | 90° |
| 2026-05-05 13:34 | 55.11731 | 82.05949 | 6993 ft | 253 kts | 90° |
| 2026-05-05 13:34 | 55.11717 | 82.09021 | 6998 ft | 253 kts | 90° |
| 2026-05-05 13:34 | 55.11702 | 82.12087 | 6996 ft | 253 kts | 90° |
| 2026-05-05 13:35 | 55.11687 | 82.15124 | 6997 ft | 253 kts | 90° |
| 2026-05-05 13:35 | 55.11671 | 82.18232 | 6998 ft | 253 kts | 90° |
| 2026-05-05 13:35 | 55.11654 | 82.21298 | 6998 ft | 253 kts | 90° |
| 2026-05-05 13:35 | 55.11637 | 82.24329 | 6997 ft | 253 kts | 90° |
| 2026-05-05 13:36 | 55.11618 | 82.27435 | 6991 ft | 253 kts | 90° |
| 2026-05-05 13:36 | 55.11600 | 82.30463 | 6996 ft | 253 kts | 90° |
| 2026-05-05 13:36 | 55.11581 | 82.33528 | 6998 ft | 253 kts | 90° |
| 2026-05-05 13:36 | 55.11560 | 82.36598 | 6992 ft | 253 kts | 91° |
| 2026-05-05 13:37 | 55.11538 | 82.39662 | 6997 ft | 253 kts | 91° |
| 2026-05-05 13:37 | 55.11525 | 82.42726 | 6989 ft | 251 kts | 88° |
| 2026-05-05 13:37 | 55.11774 | 82.45743 | 6953 ft | 253 kts | 78° |
| 2026-05-05 13:37 | 55.12162 | 82.48776 | 6727 ft | 257 kts | 77° |
| 2026-05-05 13:38 | 55.12545 | 82.51829 | 6459 ft | 257 kts | 78° |
| 2026-05-05 13:38 | 55.12910 | 82.54866 | 6193 ft | 255 kts | 78° |
| 2026-05-05 13:38 | 55.13293 | 82.57868 | 5964 ft | 249 kts | 75° |
| 2026-05-05 13:38 | 55.13765 | 82.60708 | 5989 ft | 242 kts | 73° |
| 2026-05-05 13:39 | 55.14254 | 82.63574 | 6006 ft | 250 kts | 73° |
| 2026-05-05 13:39 | 55.14751 | 82.66529 | 5927 ft | 257 kts | 73° |
| 2026-05-05 13:39 | 55.15254 | 82.69553 | 5628 ft | 259 kts | 74° |
| 2026-05-05 13:39 | 55.15750 | 82.72561 | 5315 ft | 257 kts | 74° |
| 2026-05-05 13:40 | 55.16026 | 82.75601 | 5005 ft | 253 kts | 88° |
| 2026-05-05 13:40 | 55.16046 | 82.78614 | 4686 ft | 242 kts | 90° |
| 2026-05-05 13:40 | 55.16046 | 82.81472 | 4395 ft | 228 kts | 90° |
| 2026-05-05 13:40 | 55.15771 | 82.84083 | 4139 ft | 211 kts | 117° |
| 2026-05-05 13:41 | 55.14830 | 82.85939 | 3885 ft | 205 kts | 144° |
| 2026-05-05 13:41 | 55.13537 | 82.87019 | 3583 ft | 209 kts | 167° |
| 2026-05-05 13:41 | 55.12116 | 82.87245 | 3302 ft | 201 kts | 178° |
| 2026-05-05 13:41 | 55.10748 | 82.87308 | 2985 ft | 194 kts | 178° |
| 2026-05-05 13:42 | 55.09418 | 82.87376 | 2687 ft | 189 kts | 178° |
| 2026-05-05 13:42 | 55.08121 | 82.87454 | 2408 ft | 190 kts | 178° |
| 2026-05-05 13:42 | 55.06795 | 82.87541 | 2096 ft | 185 kts | 178° |
| 2026-05-05 13:42 | 55.05538 | 82.87627 | 1993 ft | 178 kts | 178° |
| 2026-05-05 13:43 | 55.04340 | 82.87460 | 1898 ft | 174 kts | 201° |
| 2026-05-05 13:43 | 55.03494 | 82.86037 | 1904 ft | 174 kts | 245° |
| 2026-05-05 13:43 | 55.03154 | 82.84004 | 1922 ft | 176 kts | 255° |
| 2026-05-05 13:43 | 55.02835 | 82.81939 | 1903 ft | 177 kts | 256° |
| 2026-05-05 13:44 | 55.02584 | 82.79855 | 1740 ft | 170 kts | 260° |
| 2026-05-05 13:44 | 55.02407 | 82.77928 | 1514 ft | 153 kts | 261° |
| 2026-05-05 13:44 | 55.02249 | 82.76168 | 1323 ft | 142 kts | 261° |
| 2026-05-05 13:44 | 55.02097 | 82.74478 | 1153 ft | 141 kts | 261° |
| 2026-05-05 13:45 | 55.01944 | 82.72787 | 965 ft | 141 kts | 261° |
| 2026-05-05 13:45 | 55.01791 | 82.71100 | 780 ft | 140 kts | 261° |
| 2026-05-05 13:45 | 55.01640 | 82.69429 | 596 ft | 140 kts | 261° |
| 2026-05-05 13:45 | 55.01489 | 82.67756 | 417 ft | 140 kts | 261° |
| 2026-05-05 13:46 | 55.01344 | 82.66160 | 377 ft | 115 kts | 261° |
| 2026-05-05 13:46 | 55.01254 | 82.65185 | 378 ft | 38 kts | 261° |
| 2026-05-05 13:46 | 55.01199 | 82.65068 | 377 ft | 8 kts | 189° |
| 2026-05-05 13:46 | 55.01151 | 82.65070 | 377 ft | 0 kts | 172° |
| 2026-05-05 13:52 | 55.01136 | 82.65073 | 377 ft | 9 kts | 172° |
| 2026-05-05 13:52 | 55.01067 | 82.65090 | 378 ft | 10 kts | 172° |
| 2026-05-05 13:52 | 55.00994 | 82.65110 | 378 ft | 11 kts | 171° |
| 2026-05-05 13:52 | 55.00917 | 82.65127 | 378 ft | 11 kts | 182° |
| 2026-05-05 13:53 | 55.00877 | 82.65035 | 378 ft | 0 kts | 255° |
| 2026-05-05 13:53 | 55.00878 | 82.64979 | 378 ft | 16 kts | 277° |
| 2026-05-05 13:53 | 55.00903 | 82.64757 | 378 ft | 19 kts | 283° |
| 2026-05-05 13:54 | 55.00933 | 82.64533 | 378 ft | 19 kts | 283° |
| 2026-05-05 13:54 | 55.00962 | 82.64309 | 378 ft | 19 kts | 282° |
| 2026-05-05 13:54 | 55.00988 | 82.64101 | 378 ft | 13 kts | 283° |
| 2026-05-05 13:54 | 55.01020 | 82.64023 | 378 ft | 6 kts | 336° |
| 2026-05-05 13:55 | 55.01022 | 82.64022 | 379 ft | 0 kts | 336° |
| 2026-05-05 13:56 | 55.01089 | 82.63988 | 380 ft | 17 kts | 349° |
| 2026-05-05 13:56 | 55.01157 | 82.64122 | 379 ft | 17 kts | 77° |
| 2026-05-05 13:57 | 55.01189 | 82.64466 | 377 ft | 43 kts | 81° |
| 2026-05-05 13:57 | 55.01237 | 82.64989 | 377 ft | 43 kts | 81° |
| 2026-05-05 13:57 | 55.01282 | 82.65488 | 378 ft | 41 kts | 81° |
| 2026-05-05 13:57 | 55.01326 | 82.65968 | 378 ft | 39 kts | 81° |
| 2026-05-05 13:58 | 55.01367 | 82.66417 | 379 ft | 30 kts | 81° |
| 2026-05-05 13:58 | 55.01331 | 82.66595 | 378 ft | 13 kts | 157° |
| 2026-05-05 13:58 | 55.01289 | 82.66612 | 378 ft | 1 kts | 169° |
| 2026-05-05 13:58 | 55.01279 | 82.66616 | 378 ft | 3 kts | 169° |
| 2026-05-05 13:59 | 55.01150 | 82.66650 | 378 ft | 8 kts | 172° |
| 2026-05-05 13:59 | 55.01141 | 82.66653 | 378 ft | 1 kts | 172° |
| 2026-05-05 14:00 | 55.01033 | 82.66755 | 378 ft | 1 kts | 168° |